ARA Libertad — LOLD — position and weather

sailwx.info

Track history (hours):
 
Tides and Currents Weather Stations Pressure Air Temp Water Temp Dewpoint Dewpoint Depression Visibility Wind Speed Wind Dir Waves Ship Positions

ARA Libertad (Argentina)

Last reported at 2018-Apr-01 16:23 UTC. Time now 2018-Apr-20 06:38 UTC.
Position S 23°15' W 043°25'.
Warning: this ship's position is 18 days out of date.

Length 104 m; draft 6.5 m.

Type: Other ship. MMSI: 701000001.

Date/timePositionNaut miles runAvg speedWind from/ knotsBaromVisibWave heightAir tempDewpointWater temp
2018-Apr-01 16:23S 23°15' W 043°25'611.8
2018-Apr-01 15:53S 23°10' W 043°22'410.0
2018-Apr-01 15:29S 23°07' W 043°19'510.6
2018-Apr-01 14:59S 23°03' W 043°15'4 7.9
2018-Apr-01 14:30S 22°60' W 043°13'3 5.2
2018-Apr-01 14:00S 22°59' W 043°11'3 5.3
2018-Apr-01 13:30S 22°57' W 043°09'3 5.7
2018-Apr-01 13:00S 22°55' W 043°09'1 3.0
2018-Apr-01 12:30S 22°53' W 043°10'1 2.0
2018-Apr-01 11:59S 22°54' W 043°11'0 0.0
2018-Apr-01 11:29S 22°54' W 043°11'  
2018-Mar-25 17:01S 22°54' W 043°11'0 0.0
2018-Mar-25 16:58S 22°54' W 043°11'0 0.1
2018-Mar-25 16:28S 22°54' W 043°11'1 2.7
2018-Mar-25 16:00S 22°53' W 043°10'2 3.9
2018-Mar-25 15:30S 22°55' W 043°09'2 3.9
2018-Mar-25 15:00S 22°57' W 043°09'2 4.7
2018-Mar-25 14:30S 22°59' W 043°11'2 3.6
2018-Mar-25 14:00S 22°60' W 043°12'3 5.0
2018-Mar-25 13:23S 23°01' W 043°15'2 5.8
2018-Mar-25 12:59S 23°03' W 043°17'2 5.0
2018-Mar-25 12:30S 23°04' W 043°19'3 4.7
2018-Mar-25 11:51S 23°02' W 043°22'2 3.0
2018-Mar-25 11:19S 23°03' W 043°21'311.0
2018-Mar-25 11:00S 23°04' W 043°18'611.2
2018-Mar-25 10:30S 23°03' W 043°12'2 2.7
2018-Mar-25 09:36S 23°02' W 043°09'0 0.0
2018-Mar-25 08:00S 23°02' W 043°09'0 0.0
2018-Mar-25 07:24S 23°02' W 043°09'0 0.0
2018-Mar-25 06:54S 23°02' W 043°09'0 0.0
2018-Mar-25 06:30S 23°02' W 043°09'0 0.0
2018-Mar-25 05:54S 23°02' W 043°09'0 0.0
2018-Mar-25 05:27S 23°02' W 043°09'0 0.0
2018-Mar-25 04:06S 23°02' W 043°09'0 0.0
2018-Mar-25 03:45S 23°02' W 043°09'0 0.0
2018-Mar-25 03:09S 23°02' W 043°09'0 0.0
2018-Mar-25 02:39S 23°02' W 043°09'0 0.0
2018-Mar-25 02:27S 23°02' W 043°09'0 0.0
2018-Mar-25 02:00S 23°02' W 043°09'0 0.0
2018-Mar-25 01:30S 23°02' W 043°09'0 0.0
2018-Mar-25 01:00S 23°02' W 043°09'0 0.0
2018-Mar-25 00:27S 23°02' W 043°09'0 0.0
2018-Mar-25 00:00S 23°02' W 043°09'0 0.0
2018-Mar-24 23:30S 23°02' W 043°09'0 0.0
2018-Mar-24 23:00S 23°02' W 043°09'0 0.0
2018-Mar-24 22:30S 23°02' W 043°09'0 0.0
2018-Mar-24 22:00S 23°02' W 043°09'0 0.0
2018-Mar-24 21:30S 23°02' W 043°09'0 0.0
2018-Mar-24 20:59S 23°02' W 043°09'0 0.0
2018-Mar-24 20:30S 23°02' W 043°09'0 0.0
2018-Mar-24 20:00S 23°02' W 043°09'0 0.0
2018-Mar-24 19:30S 23°02' W 043°09'0 0.0
2018-Mar-24 19:00S 23°02' W 043°09'0 0.0
2018-Mar-24 18:30S 23°02' W 043°09'0 0.0
2018-Mar-24 18:00S 23°02' W 043°09'0 0.0
2018-Mar-24 17:30S 23°02' W 043°09'0 0.0
2018-Mar-24 17:00S 23°02' W 043°09'0 0.0
2018-Mar-24 16:30S 23°02' W 043°09'0 0.0
2018-Mar-24 16:00S 23°02' W 043°09'0 0.0
2018-Mar-24 15:30S 23°02' W 043°09'0 0.1
2018-Mar-24 15:00S 23°02' W 043°09'1 1.4
2018-Mar-24 14:29S 23°03' W 043°09'3 6.2
2018-Mar-24 14:00S 23°03' W 043°06'4 8.4
2018-Mar-24 13:29S 23°08' W 043°06'1 2.8
2018-Mar-24 12:59S 23°09' W 043°06'2 2.5
2018-Mar-24 12:20S 23°11' W 043°06'7 5.9
2018-Mar-24 11:07S 23°18' W 043°08'14 8.7
2018-Mar-24 09:33S 23°26' W 043°19'  
Track history (hours):
 
Tides and Currents Weather Stations Pressure Air Temp Water Temp Dewpoint Dewpoint Depression Visibility Wind Speed Wind Dir Waves Ship Positions

ARA Libertad (Argentina)

Last reported at 2018-Apr-01 16:23 UTC. Time now 2018-Apr-20 06:38 UTC.
Position S 23°15' W 043°25'.
Warning: this ship's position is 18 days out of date.

Length 104 m; draft 6.5 m.

Type: Other ship. MMSI: 701000001.

Date/timePositionNaut miles runAvg speedWind from/ knotsBaromVisibWave heightAir tempDewpointWater temp
2018-Apr-01 16:23S 23°15' W 043°25'611.8
2018-Apr-01 15:53S 23°10' W 043°22'410.0
2018-Apr-01 15:29S 23°07' W 043°19'510.6
2018-Apr-01 14:59S 23°03' W 043°15'4 7.9
2018-Apr-01 14:30S 22°60' W 043°13'3 5.2
2018-Apr-01 14:00S 22°59' W 043°11'3 5.3
2018-Apr-01 13:30S 22°57' W 043°09'3 5.7
2018-Apr-01 13:00S 22°55' W 043°09'1 3.0
2018-Apr-01 12:30S 22°53' W 043°10'1 2.0
2018-Apr-01 11:59S 22°54' W 043°11'0 0.0
2018-Apr-01 11:29S 22°54' W 043°11'  
2018-Mar-25 17:01S 22°54' W 043°11'0 0.0
2018-Mar-25 16:58S 22°54' W 043°11'0 0.1
2018-Mar-25 16:28S 22°54' W 043°11'1 2.7
2018-Mar-25 16:00S 22°53' W 043°10'2 3.9
2018-Mar-25 15:30S 22°55' W 043°09'2 3.9
2018-Mar-25 15:00S 22°57' W 043°09'2 4.7
2018-Mar-25 14:30S 22°59' W 043°11'2 3.6
2018-Mar-25 14:00S 22°60' W 043°12'3 5.0
2018-Mar-25 13:23S 23°01' W 043°15'2 5.8
2018-Mar-25 12:59S 23°03' W 043°17'2 5.0
2018-Mar-25 12:30S 23°04' W 043°19'3 4.7
2018-Mar-25 11:51S 23°02' W 043°22'2 3.0
2018-Mar-25 11:19S 23°03' W 043°21'311.0
2018-Mar-25 11:00S 23°04' W 043°18'611.2
2018-Mar-25 10:30S 23°03' W 043°12'2 2.7
2018-Mar-25 09:36S 23°02' W 043°09'0 0.0
2018-Mar-25 08:00S 23°02' W 043°09'0 0.0
2018-Mar-25 07:24S 23°02' W 043°09'0 0.0
2018-Mar-25 06:54S 23°02' W 043°09'0 0.0
2018-Mar-25 06:30S 23°02' W 043°09'0 0.0
2018-Mar-25 05:54S 23°02' W 043°09'0 0.0
2018-Mar-25 05:27S 23°02' W 043°09'0 0.0
2018-Mar-25 04:06S 23°02' W 043°09'0 0.0
2018-Mar-25 03:45S 23°02' W 043°09'0 0.0
2018-Mar-25 03:09S 23°02' W 043°09'0 0.0
2018-Mar-25 02:39S 23°02' W 043°09'0 0.0
2018-Mar-25 02:27S 23°02' W 043°09'0 0.0
2018-Mar-25 02:00S 23°02' W 043°09'0 0.0
2018-Mar-25 01:30S 23°02' W 043°09'0 0.0
2018-Mar-25 01:00S 23°02' W 043°09'0 0.0
2018-Mar-25 00:27S 23°02' W 043°09'0 0.0
2018-Mar-25 00:00S 23°02' W 043°09'0 0.0
2018-Mar-24 23:30S 23°02' W 043°09'0 0.0
2018-Mar-24 23:00S 23°02' W 043°09'0 0.0
2018-Mar-24 22:30S 23°02' W 043°09'0 0.0
2018-Mar-24 22:00S 23°02' W 043°09'0 0.0
2018-Mar-24 21:30S 23°02' W 043°09'0 0.0
2018-Mar-24 20:59S 23°02' W 043°09'0 0.0
2018-Mar-24 20:30S 23°02' W 043°09'0 0.0
2018-Mar-24 20:00S 23°02' W 043°09'0 0.0
2018-Mar-24 19:30S 23°02' W 043°09'0 0.0
2018-Mar-24 19:00S 23°02' W 043°09'0 0.0
2018-Mar-24 18:30S 23°02' W 043°09'0 0.0
2018-Mar-24 18:00S 23°02' W 043°09'0 0.0
2018-Mar-24 17:30S 23°02' W 043°09'0 0.0
2018-Mar-24 17:00S 23°02' W 043°09'0 0.0
2018-Mar-24 16:30S 23°02' W 043°09'0 0.0
2018-Mar-24 16:00S 23°02' W 043°09'0 0.0
2018-Mar-24 15:30S 23°02' W 043°09'0 0.1
2018-Mar-24 15:00S 23°02' W 043°09'1 1.4
2018-Mar-24 14:29S 23°03' W 043°09'3 6.2
2018-Mar-24 14:00S 23°03' W 043°06'4 8.4
2018-Mar-24 13:29S 23°08' W 043°06'1 2.8
2018-Mar-24 12:59S 23°09' W 043°06'2 2.5
2018-Mar-24 12:20S 23°11' W 043°06'7 5.9
2018-Mar-24 11:07S 23°18' W 043°08'14 8.7
2018-Mar-24 09:33S 23°26' W 043°19'  

Dump ship's entire track history